OEMA/MED METAR and TAF weather

Enter ICAO airport designator
Station Type Date Time Source
OEMA METAR 2021/01/22 07:00 UTC NOAA

OEMA 220700Z 09008KT 9999 FEW045 12/M07 Q1028 NOSIG


Station Type Date Time Source
OEMA Decoded METAR 2021/01/22 07:00 UTC NOAA

Madinah, Saudi Arabia (OEMA) 24-33N 039-42E 636M
Jan 22, 2021 - 02:00 AM EST / 2021.01.22 0700 UTC
Wind: from the E (090 degrees) at 9 MPH (8 KT):0
Visibility: greater than 7 mile(s):0
Sky conditions: mostly clear
Temperature: 53 F (12 C)
Dew Point: 19 F (-7 C)
Relative Humidity: 25%
Pressure (altimeter): 30.36 in. Hg (1028 hPa)
ob: OEMA 220700Z 09008KT 9999 FEW045 12/M07 Q1028 NOSIG
cycle: 7

Station Type Date Time Source
OEMA TAF 2021/01/22 06:33 UTC NOAA

TAF OEMA 220500Z 2206/2312 09025KT 5000 BLDU NSC
TEMPO 2206/2218 1000 BLSA

Example: see airport list